Bookmark and Share
Track history (hours):
 

Windflight

More information available from US FCC via Universal Licensing System and Coast Guard Vessel Documentation Center.

Last reported at 2014-Apr-23 21:23 UTC. Time now 2014-Apr-24 11:02 UTC.
Position N 47°41' W 122°25'.

Length 21 m.

Type: Pleasure craft. MMSI: 367473060.

NotesDate/timePositionNaut miles runAvg speedWind from/ knotsBaromVisibWave heightAir tempDewpointWater temp
2014-Apr-23 21:23N 47°41' W 122°25'0 0.0
2014-Apr-23 20:32N 47°41' W 122°25'0 0.0
2014-Apr-23 19:32N 47°41' W 122°25'0 0.0
2014-Apr-23 18:32N 47°41' W 122°25'0 0.0
2014-Apr-23 17:32N 47°41' W 122°25'0 0.0
2014-Apr-23 17:26N 47°41' W 122°25'0 0.0
2014-Apr-23 16:32N 47°41' W 122°25'0 0.0
2014-Apr-22 02:07N 47°41' W 122°25'0 0.0
2014-Apr-22 01:31N 47°41' W 122°25'0 0.0
2014-Apr-22 00:31N 47°41' W 122°25'0 0.0
2014-Apr-21 23:25N 47°41' W 122°25'0 0.0
2014-Apr-21 22:31N 47°41' W 122°25'0 0.0
2014-Apr-21 21:28N 47°41' W 122°25'0 0.0
2014-Apr-21 20:31N 47°41' W 122°25'0 0.0
2014-Apr-21 19:28N 47°41' W 122°25'0 0.0
2014-Apr-21 18:31N 47°41' W 122°25'0 0.1
2014-Apr-21 17:48N 47°41' W 122°25'2 6.7
2014-Apr-21 17:33N 47°42' W 122°27'0 0.0
2014-Apr-21 17:33N 47°42' W 122°27'4 3.6
2014-Apr-21 16:31N 47°42' W 122°32'0 0.0
2014-Apr-21 15:43N 47°42' W 122°32'0 0.0
2014-Apr-21 15:31N 47°42' W 122°32'0 0.0
2014-Apr-21 15:13N 47°42' W 122°32'0 0.0
2014-Apr-21 14:31N 47°42' W 122°32'0 0.0
2014-Apr-21 14:07N 47°42' W 122°32'0 0.0
2014-Apr-21 13:28N 47°42' W 122°32'0 0.0
2014-Apr-21 12:52N 47°42' W 122°32'0 0.0
2014-Apr-21 12:25N 47°42' W 122°32'0 0.0
2014-Apr-21 12:07N 47°42' W 122°32'0 0.0
2014-Apr-21 11:31N 47°42' W 122°32'0 0.0
2014-Apr-21 11:07N 47°42' W 122°32'0 0.0
2014-Apr-21 10:31N 47°42' W 122°32'0 0.0
2014-Apr-21 10:22N 47°42' W 122°32'0 0.0
2014-Apr-21 09:31N 47°42' W 122°32'0 0.0
2014-Apr-21 08:37N 47°42' W 122°32'0 0.0
2014-Apr-21 08:31N 47°42' W 122°32'0 0.0
2014-Apr-21 07:28N 47°42' W 122°32'0 0.0
2014-Apr-21 06:37N 47°42' W 122°32'0 0.0
2014-Apr-21 06:25N 47°42' W 122°32'0 0.0
2014-Apr-21 06:22N 47°42' W 122°32'0 0.0
2014-Apr-21 05:28N 47°42' W 122°32'0 0.0
2014-Apr-21 05:22N 47°42' W 122°32'0 0.0
2014-Apr-21 04:31N 47°42' W 122°32'0 0.0
2014-Apr-21 04:07N 47°42' W 122°32'0 0.0
2014-Apr-21 03:25N 47°42' W 122°32'0 0.0
2014-Apr-21 03:22N 47°42' W 122°32'0 0.0
2014-Apr-21 02:31N 47°42' W 122°32'0 0.0
2014-Apr-21 02:31N 47°42' W 122°32'0 0.0
2014-Apr-21 01:31N 47°42' W 122°32'0 0.0
2014-Apr-21 01:31N 47°42' W 122°32'0 0.0
2014-Apr-21 00:31N 47°42' W 122°32'0 0.0
2014-Apr-21 00:31N 47°42' W 122°32'0 0.0
2014-Apr-20 23:31N 47°42' W 122°32'0 0.0
2014-Apr-20 23:01N 47°42' W 122°32'0 0.0
2014-Apr-20 22:31N 47°42' W 122°32'0 0.0
2014-Apr-20 22:31N 47°42' W 122°32'0 0.0
2014-Apr-20 21:31N 47°42' W 122°32'0 0.0
2014-Apr-20 21:31N 47°42' W 122°32'0 0.0
2014-Apr-20 20:28N 47°42' W 122°32'0 0.0
2014-Apr-20 19:28N 47°42' W 122°32'0 0.0
2014-Apr-20 19:16N 47°42' W 122°32'0 0.0
2014-Apr-20 18:16N 47°42' W 122°32'0 0.0
2014-Apr-20 17:33N 47°42' W 122°32'0 0.0
2014-Apr-20 17:31N 47°42' W 122°32'5 4.7
2014-Apr-20 16:33N 47°41' W 122°25'0 7.9
2014-Apr-20 16:31N 47°41' W 122°25'0 0.3
2014-Apr-20 15:31N 47°41' W 122°25'0 0.0
2014-Apr-20 15:30N 47°41' W 122°25'0 0.0
2014-Apr-20 14:31N 47°41' W 122°25'0 0.0
2014-Apr-20 14:30N 47°41' W 122°25'0 0.0
2014-Apr-20 13:31N 47°41' W 122°25'0 0.0
2014-Apr-20 13:30N 47°41' W 122°25'0 0.0
2014-Apr-20 12:31N 47°41' W 122°25'0 0.0
2014-Apr-20 12:30N 47°41' W 122°25'0 0.0
2014-Apr-20 11:31N 47°41' W 122°25'0 0.0
2014-Apr-20 11:30N 47°41' W 122°25'0 0.0
2014-Apr-20 10:31N 47°41' W 122°25'0 0.0
2014-Apr-20 10:30N 47°41' W 122°25'0 0.0
2014-Apr-20 09:31N 47°41' W 122°25'0 0.0
2014-Apr-20 09:30N 47°41' W 122°25'0 0.0
2014-Apr-20 08:31N 47°41' W 122°25'0 0.0
2014-Apr-20 08:30N 47°41' W 122°25'0 0.0
2014-Apr-20 07:31N 47°41' W 122°25'0 0.0
2014-Apr-20 07:30N 47°41' W 122°25'0 0.0
2014-Apr-20 06:31N 47°41' W 122°25'0 0.0
2014-Apr-20 06:24N 47°41' W 122°25'0 0.0
2014-Apr-20 05:39N 47°41' W 122°25'0 0.0
2014-Apr-20 05:31N 47°41' W 122°25'0 0.0
2014-Apr-20 04:31N 47°41' W 122°25'0 0.0
2014-Apr-20 04:24N 47°41' W 122°25'0 0.0
2014-Apr-20 03:31N 47°41' W 122°25'0 0.0
2014-Apr-20 03:24N 47°41' W 122°25'0 0.0
2014-Apr-20 02:31N 47°41' W 122°25'0 0.0
2014-Apr-20 02:24N 47°41' W 122°25'0 0.0
2014-Apr-20 01:31N 47°41' W 122°25'0 0.0
2014-Apr-20 01:24N 47°41' W 122°25'0 0.0
2014-Apr-20 00:31N 47°41' W 122°25'0 0.0
2014-Apr-20 00:24N 47°41' W 122°25'0 0.0
2014-Apr-19 23:31N 47°41' W 122°25'0 0.0
2014-Apr-19 23:24N 47°41' W 122°25'0 0.0
2014-Apr-19 22:31N 47°41' W 122°25'0 0.0
2014-Apr-19 22:24N 47°41' W 122°25'0 0.0
2014-Apr-19 21:31N 47°41' W 122°25'0 0.0
2014-Apr-19 21:24N 47°41' W 122°25'0 0.0
2014-Apr-19 20:16N 47°41' W 122°25'0 0.0
2014-Apr-19 19:28N 47°41' W 122°25'0 0.0
2014-Apr-19 19:21N 47°41' W 122°25'0 0.0
2014-Apr-19 18:31N 47°41' W 122°25'0 0.0
2014-Apr-19 18:06N 47°41' W 122°25'0 0.0
2014-Apr-19 17:31N 47°41' W 122°25'0 0.0
2014-Apr-19 17:21N 47°41' W 122°25'0 0.0
2014-Apr-19 16:31N 47°41' W 122°25'0 0.0
2014-Apr-19 16:21N 47°41' W 122°25'0 0.0
2014-Apr-19 15:31N 47°41' W 122°25'0 0.0
2014-Apr-19 15:21N 47°41' W 122°25'0 0.0
2014-Apr-19 14:31N 47°41' W 122°25'0 0.0
2014-Apr-19 13:31N 47°41' W 122°25'0 0.0
2014-Apr-19 12:34N 47°41' W 122°25'0 0.0
2014-Apr-19 12:21N 47°41' W 122°25'0 0.0
2014-Apr-19 11:34N 47°41' W 122°25'0 0.0
2014-Apr-19 11:21N 47°41' W 122°25'0 0.0
2014-Apr-19 10:31N 47°41' W 122°25'0 0.0
2014-Apr-19 10:30N 47°41' W 122°25'0 0.0
2014-Apr-19 09:34N 47°41' W 122°25'0 0.0
2014-Apr-19 09:30N 47°41' W 122°25'0 0.0
2014-Apr-19 08:31N 47°41' W 122°25'0 0.0
2014-Apr-19 08:30N 47°41' W 122°25'0 0.0
2014-Apr-19 07:22N 47°41' W 122°25'0 0.0
2014-Apr-19 07:21N 47°41' W 122°25'0 0.0
2014-Apr-19 06:31N 47°41' W 122°25'0 0.0
2014-Apr-19 06:30N 47°41' W 122°25'0 0.0
2014-Apr-19 05:45N 47°41' W 122°25'0 0.0
2014-Apr-19 05:34N 47°41' W 122°25'0 0.0
2014-Apr-19 04:34N 47°41' W 122°25'0 0.8
2014-Apr-19 04:30N 47°41' W 122°25'0 0.0
2014-Apr-19 03:34N 47°41' W 122°25'0 0.0
2014-Apr-19 03:30N 47°41' W 122°25'0 0.0
2014-Apr-19 02:34N 47°41' W 122°25'0 0.0
2014-Apr-19 02:30N 47°41' W 122°25'0 0.0
2014-Apr-19 01:34N 47°41' W 122°25'0 0.0
2014-Apr-19 01:30N 47°41' W 122°25'0 0.0
2014-Apr-19 00:34N 47°41' W 122°25'0 0.0
2014-Apr-19 00:24N 47°41' W 122°25'0 0.0
2014-Apr-18 23:34N 47°41' W 122°25'0 0.3
2014-Apr-18 23:24N 47°41' W 122°25'0 0.0
2014-Apr-18 22:34N 47°41' W 122°25'0 0.0
2014-Apr-18 22:24N 47°41' W 122°25'0 0.0
2014-Apr-18 21:34N 47°41' W 122°25'0 0.0
2014-Apr-18 21:24N 47°41' W 122°25'0 0.0
2014-Apr-18 20:34N 47°41' W 122°25'0 0.0
2014-Apr-18 20:24N 47°41' W 122°25'0 0.0
2014-Apr-18 19:34N 47°41' W 122°25'0 0.0
2014-Apr-18 19:24N 47°41' W 122°25'0 0.0
2014-Apr-18 18:34N 47°41' W 122°25'0 0.0
2014-Apr-18 18:24N 47°41' W 122°25'0 0.0
2014-Apr-18 17:34N 47°41' W 122°25'0 0.0
2014-Apr-18 17:24N 47°41' W 122°25'0 0.0
2014-Apr-18 16:34N 47°41' W 122°25'0 0.0
2014-Apr-18 16:24N 47°41' W 122°25'0 0.0
2014-Apr-18 15:34N 47°41' W 122°25'0 0.0
2014-Apr-18 15:24N 47°41' W 122°25'0 0.0
2014-Apr-18 14:34N 47°41' W 122°25'0 0.0
2014-Apr-18 14:24N 47°41' W 122°25'0 0.0
2014-Apr-18 13:34N 47°41' W 122°25'0 0.0
2014-Apr-18 13:24N 47°41' W 122°25'0 0.0
2014-Apr-18 12:33N 47°41' W 122°25'0 0.0
2014-Apr-18 12:24N 47°41' W 122°25'0 0.0
2014-Apr-18 11:33N 47°41' W 122°25'0 0.0
2014-Apr-18 11:24N 47°41' W 122°25'0 0.0
2014-Apr-18 10:33N 47°41' W 122°25'0 0.0
2014-Apr-18 09:30N 47°41' W 122°25'0 0.0
2014-Apr-18 08:33N 47°41' W 122°25'0 0.0
2014-Apr-18 07:27N 47°41' W 122°25'0 0.0
2014-Apr-18 07:18N 47°41' W 122°25'0 0.0
2014-Apr-18 06:33N 47°41' W 122°25'0 0.0
2014-Apr-18 06:18N 47°41' W 122°25'0 0.0
2014-Apr-18 05:33N 47°41' W 122°25'0 0.0
2014-Apr-18 05:33N 47°41' W 122°25'0 0.0
2014-Apr-18 04:33N 47°41' W 122°25'0 0.0
2014-Apr-18 04:18N 47°41' W 122°25'0 0.0
2014-Apr-18 03:33N 47°41' W 122°25'0 0.0
2014-Apr-18 03:18N 47°41' W 122°25'0 0.0
2014-Apr-18 02:33N 47°41' W 122°25'0 0.0
2014-Apr-18 02:18N 47°41' W 122°25'0 0.0
2014-Apr-18 01:33N 47°41' W 122°25'0 0.0
2014-Apr-18 01:18N 47°41' W 122°25'0 0.0
2014-Apr-18 00:33N 47°41' W 122°25'0 0.0
2014-Apr-18 00:18N 47°41' W 122°25'0 0.0
2014-Apr-17 23:33N 47°41' W 122°25'0 0.0
2014-Apr-17 23:33N 47°41' W 122°25'0 0.0
2014-Apr-17 22:33N 47°41' W 122°25'0 0.0
2014-Apr-17 22:33N 47°41' W 122°25'0 0.0
2014-Apr-17 21:33N 47°41' W 122°25'0 0.0
2014-Apr-17 21:33N 47°41' W 122°25'0 0.0
2014-Apr-17 20:33N 47°41' W 122°25'0 0.0
2014-Apr-17 20:33N 47°41' W 122°25'0 0.0
2014-Apr-17 19:33N 47°41' W 122°25'0 0.0
2014-Apr-17 19:33N 47°41' W 122°25'0 0.0
2014-Apr-17 18:33N 47°41' W 122°25'0 0.0
2014-Apr-17 18:33N 47°41' W 122°25'0 0.0
2014-Apr-17 17:33N 47°41' W 122°25'0 0.0
2014-Apr-17 17:24N 47°41' W 122°25'0 0.0
2014-Apr-17 16:33N 47°41' W 122°25'0 0.0
2014-Apr-17 16:24N 47°41' W 122°25'0 0.0
2014-Apr-17 15:33N 47°41' W 122°25'0 0.0
2014-Apr-17 15:24N 47°41' W 122°25'0 0.0
2014-Apr-17 03:32N 47°41' W 122°25'0 0.0
2014-Apr-17 02:32N 47°41' W 122°25'0 0.0
2014-Apr-17 01:32N 47°41' W 122°25'0 0.0
2014-Apr-17 00:32N 47°41' W 122°25'0 0.0
2014-Apr-16 23:32N 47°41' W 122°25'0 0.0
2014-Apr-16 22:32N 47°41' W 122°25'0 0.0
2014-Apr-16 21:29N 47°41' W 122°25'0 0.0
2014-Apr-16 20:32N 47°41' W 122°25'0 0.0
2014-Apr-16 19:32N 47°41' W 122°25'0 0.0
2014-Apr-16 18:29N 47°41' W 122°25'0 0.0
2014-Apr-16 17:32N 47°41' W 122°25'0 0.0
2014-Apr-16 03:22N 47°41' W 122°25'0 0.0
2014-Apr-16 03:22N 47°41' W 122°25'0 0.0
2014-Apr-16 02:31N 47°41' W 122°25'0 0.0
2014-Apr-16 02:22N 47°41' W 122°25'0 0.0
2014-Apr-16 01:31N 47°41' W 122°25'0 0.0
2014-Apr-16 01:22N 47°41' W 122°25'0 0.0
2014-Apr-16 00:31N 47°41' W 122°25'0 0.0
2014-Apr-16 00:07N 47°41' W 122°25'0 0.0
2014-Apr-15 23:31N 47°41' W 122°25'0 0.0
2014-Apr-15 23:22N 47°41' W 122°25'0 0.0
2014-Apr-15 22:31N 47°41' W 122°25'0 0.0
2014-Apr-15 22:31N 47°41' W 122°25'0 0.0
2014-Apr-15 21:31N 47°41' W 122°25'0 0.0
2014-Apr-15 21:31N 47°41' W 122°25'0 0.0
2014-Apr-15 20:31N 47°41' W 122°25'0 0.0
2014-Apr-15 20:31N 47°41' W 122°25'0 0.0
2014-Apr-15 19:31N 47°41' W 122°25'0 0.0
2014-Apr-15 19:31N 47°41' W 122°25'0 0.0
2014-Apr-15 18:31N 47°41' W 122°25'0 0.0
2014-Apr-15 18:31N 47°41' W 122°25'0 0.0
2014-Apr-15 17:31N 47°41' W 122°25'0 0.0
2014-Apr-15 17:31N 47°41' W 122°25'0 0.0
2014-Apr-15 16:31N 47°41' W 122°25'0 0.0
2014-Apr-15 16:31N 47°41' W 122°25'0 0.0
2014-Apr-15 15:31N 47°41' W 122°25'0 0.0
2014-Apr-15 15:31N 47°41' W 122°25'0 0.0
2014-Apr-15 02:33N 47°41' W 122°25'0 0.0
2014-Apr-15 01:33N 47°41' W 122°25'0 0.0
2014-Apr-15 00:33N 47°41' W 122°25'0 0.0
2014-Apr-14 23:33N 47°41' W 122°25'0 0.0
2014-Apr-14 22:33N 47°41' W 122°25'0 0.0
2014-Apr-13 21:32N 47°41' W 122°25'  

Dump ship's entire track history

sailing weather and tide predictions

Windflight — WDF6324 — position and weather